SIA211 WSSS-YSSY
Flight info
| Callsign | SIA211 |
|---|---|
| Flight time | N/A |
| Altitude | 39000 |
| Route | IDBUD1B IDBUD T24 SURGA M635 ATMAP A576 CIN/N0481F410 A576 APOMA Y52 VELGI Y105 TARAL Y59 RIVET |
| Aircraft | A359/H-SDE2E3GHIJ1J3J4J5LM1ORWXY/LB1D1 |
Departure
| Time | 2026-05-04 01:49 |
|---|---|
| Airport | Singapore Changi Airport (WSSS) |
Arrival
| Time | N/A |
|---|---|
| Airport | Sydney Kingsford Smith International Airport (YSSY) |
| Time | Latitude | Longitude | Altitude | Speed | Heading |
|---|---|---|---|---|---|
| 2026-05-04 01:28 | 1.35048 | 103.98264 | 37 ft | 0 kts | 153° |
| 2026-05-04 01:39 | 1.35049 | 103.98263 | 11 ft | 2 kts | 153° |
| 2026-05-04 01:40 | 1.35070 | 103.98251 | 38 ft | 4 kts | 147° |
| 2026-05-04 01:40 | 1.35093 | 103.98237 | 36 ft | 4 kts | 154° |
| 2026-05-04 01:40 | 1.35113 | 103.98230 | 38 ft | 2 kts | 186° |
| 2026-05-04 01:40 | 1.35133 | 103.98234 | 37 ft | 4 kts | 215° |
| 2026-05-04 01:41 | 1.35147 | 103.98249 | 36 ft | 4 kts | 245° |
| 2026-05-04 01:41 | 1.35155 | 103.98265 | 35 ft | 1 kts | 240° |
| 2026-05-04 01:44 | 1.35120 | 103.98205 | 39 ft | 14 kts | 234° |
| 2026-05-04 01:44 | 1.35070 | 103.98125 | 39 ft | 14 kts | 234° |
| 2026-05-04 01:44 | 1.34993 | 103.98082 | 39 ft | 16 kts | 204° |
| 2026-05-04 01:44 | 1.34882 | 103.98034 | 39 ft | 18 kts | 202° |
| 2026-05-04 01:45 | 1.34828 | 103.97999 | 39 ft | 6 kts | 247° |
| 2026-05-04 01:45 | 1.34834 | 103.97929 | 39 ft | 12 kts | 291° |
| 2026-05-04 01:45 | 1.34853 | 103.97884 | 39 ft | 0 kts | 292° |
| 2026-05-04 01:46 | 1.34853 | 103.97883 | 39 ft | 2 kts | 292° |
| 2026-05-04 01:46 | 1.34868 | 103.97846 | 39 ft | 7 kts | 292° |
| 2026-05-04 01:46 | 1.34890 | 103.97795 | 40 ft | 8 kts | 295° |
| 2026-05-04 01:47 | 1.34929 | 103.97767 | 40 ft | 9 kts | 347° |
| 2026-05-04 01:47 | 1.34980 | 103.97779 | 40 ft | 0 kts | 22° |
| 2026-05-04 01:48 | 1.35058 | 103.97812 | 40 ft | 38 kts | 23° |
| 2026-05-04 01:48 | 1.35515 | 103.98002 | 41 ft | 103 kts | 22° |
| 2026-05-04 01:48 | 1.36352 | 103.98353 | 39 ft | 157 kts | 22° |
| 2026-05-04 01:49 | 1.37429 | 103.98800 | 534 ft | 163 kts | 22° |
| 2026-05-04 01:49 | 1.38460 | 103.99228 | 1233 ft | 160 kts | 22° |
| 2026-05-04 01:49 | 1.39513 | 103.99684 | 1530 ft | 172 kts | 23° |
| 2026-05-04 01:49 | 1.40669 | 104.00182 | 1783 ft | 191 kts | 23° |
| 2026-05-04 01:50 | 1.41970 | 104.00736 | 2028 ft | 217 kts | 23° |
| 2026-05-04 01:50 | 1.43431 | 104.01356 | 2344 ft | 239 kts | 23° |
| 2026-05-04 01:50 | 1.45021 | 104.02030 | 2787 ft | 255 kts | 22° |
| 2026-05-04 01:50 | 1.46667 | 104.02755 | 3437 ft | 263 kts | 26° |
| 2026-05-04 01:51 | 1.48093 | 104.03906 | 4100 ft | 269 kts | 54° |
| 2026-05-04 01:51 | 1.48733 | 104.05619 | 4706 ft | 272 kts | 86° |
| 2026-05-04 01:51 | 1.48378 | 104.07473 | 5355 ft | 275 kts | 113° |
| 2026-05-04 01:51 | 1.47571 | 104.09211 | 6059 ft | 277 kts | 116° |
| 2026-05-04 01:52 | 1.46721 | 104.10954 | 6744 ft | 281 kts | 116° |
| 2026-05-04 01:52 | 1.45873 | 104.12726 | 7438 ft | 284 kts | 115° |
| 2026-05-04 01:52 | 1.45028 | 104.14517 | 8160 ft | 287 kts | 115° |
| 2026-05-04 01:52 | 1.44179 | 104.16327 | 8896 ft | 289 kts | 115° |
| 2026-05-04 01:53 | 1.43312 | 104.18154 | 9681 ft | 292 kts | 117° |
| 2026-05-04 01:53 | 1.42155 | 104.19828 | 10309 ft | 298 kts | 133° |
| 2026-05-04 01:53 | 1.40470 | 104.21119 | 10644 ft | 315 kts | 151° |
| 2026-05-04 01:53 | 1.38459 | 104.22118 | 10946 ft | 332 kts | 155° |
| 2026-05-04 01:54 | 1.36343 | 104.23092 | 11235 ft | 347 kts | 155° |
| 2026-05-04 01:54 | 1.34115 | 104.24116 | 11641 ft | 357 kts | 155° |
| 2026-05-04 01:54 | 1.31844 | 104.25161 | 12176 ft | 362 kts | 155° |
| 2026-05-04 01:54 | 1.29543 | 104.26221 | 12740 ft | 366 kts | 155° |
| 2026-05-04 01:55 | 1.27217 | 104.27294 | 13292 ft | 370 kts | 155° |
| 2026-05-04 01:55 | 1.24875 | 104.28374 | 13861 ft | 373 kts | 154° |
| 2026-05-04 01:55 | 1.22509 | 104.29466 | 14359 ft | 376 kts | 154° |
| 2026-05-04 01:55 | 1.20128 | 104.30566 | 14861 ft | 378 kts | 154° |
| 2026-05-04 01:56 | 1.17747 | 104.31665 | 15356 ft | 381 kts | 154° |
| 2026-05-04 01:56 | 1.15315 | 104.32788 | 15855 ft | 384 kts | 154° |
| 2026-05-04 01:56 | 1.12885 | 104.33909 | 16341 ft | 386 kts | 154° |
| 2026-05-04 01:56 | 1.10438 | 104.35040 | 16827 ft | 389 kts | 154° |
| 2026-05-04 01:57 | 1.07973 | 104.36178 | 17315 ft | 392 kts | 154° |
| 2026-05-04 01:57 | 1.05494 | 104.37322 | 17790 ft | 394 kts | 153° |
| 2026-05-04 01:57 | 1.03019 | 104.38466 | 18266 ft | 397 kts | 153° |
| 2026-05-04 01:57 | 1.00501 | 104.39628 | 18654 ft | 400 kts | 153° |
| 2026-05-04 01:58 | 0.97973 | 104.40796 | 19052 ft | 403 kts | 153° |
| 2026-05-04 01:58 | 0.95451 | 104.41960 | 19449 ft | 405 kts | 153° |
| 2026-05-04 01:58 | 0.92890 | 104.43142 | 19852 ft | 407 kts | 153° |
| 2026-05-04 01:58 | 0.90306 | 104.44336 | 20256 ft | 410 kts | 154° |
| 2026-05-04 01:59 | 0.87706 | 104.45535 | 20667 ft | 413 kts | 154° |
| 2026-05-04 01:59 | 0.85094 | 104.46741 | 21079 ft | 415 kts | 154° |
| 2026-05-04 01:59 | 0.82465 | 104.47955 | 21489 ft | 418 kts | 154° |
| 2026-05-04 01:59 | 0.79815 | 104.49178 | 21903 ft | 421 kts | 154° |
| 2026-05-04 02:00 | 0.77148 | 104.50410 | 22314 ft | 423 kts | 154° |
| 2026-05-04 02:00 | 0.74468 | 104.51647 | 22715 ft | 426 kts | 154° |
| 2026-05-04 02:00 | 0.71767 | 104.52894 | 23112 ft | 429 kts | 154° |
| 2026-05-04 02:00 | 0.69047 | 104.54149 | 23507 ft | 432 kts | 154° |
| 2026-05-04 02:01 | 0.66318 | 104.55410 | 23832 ft | 434 kts | 154° |
| 2026-05-04 02:01 | 0.63604 | 104.56662 | 24158 ft | 436 kts | 154° |
| 2026-05-04 02:01 | 0.60843 | 104.57936 | 24505 ft | 438 kts | 154° |
| 2026-05-04 02:01 | 0.58071 | 104.59216 | 24871 ft | 440 kts | 154° |
| 2026-05-04 02:02 | 0.55285 | 104.60502 | 25246 ft | 442 kts | 154° |
| 2026-05-04 02:02 | 0.52483 | 104.61798 | 25636 ft | 444 kts | 154° |
| 2026-05-04 02:02 | 0.49761 | 104.63261 | 26020 ft | 446 kts | 146° |
| 2026-05-04 02:02 | 0.47318 | 104.65164 | 26425 ft | 447 kts | 135° |
| 2026-05-04 02:03 | 0.45314 | 104.67531 | 26827 ft | 448 kts | 123° |
| 2026-05-04 02:03 | 0.43670 | 104.70183 | 27223 ft | 450 kts | 120° |
| 2026-05-04 02:03 | 0.42110 | 104.72857 | 27610 ft | 453 kts | 120° |
| 2026-05-04 02:03 | 0.40529 | 104.75587 | 28006 ft | 455 kts | 120° |
| 2026-05-04 02:04 | 0.38939 | 104.78338 | 28394 ft | 458 kts | 120° |
| 2026-05-04 02:04 | 0.37342 | 104.81100 | 28783 ft | 461 kts | 120° |
| 2026-05-04 02:04 | 0.35734 | 104.83881 | 29167 ft | 464 kts | 120° |
| 2026-05-04 02:04 | 0.34114 | 104.86684 | 29509 ft | 467 kts | 120° |
| 2026-05-04 02:05 | 0.32487 | 104.89498 | 29885 ft | 469 kts | 120° |
| 2026-05-04 02:05 | 0.30853 | 104.92325 | 30202 ft | 472 kts | 120° |
| 2026-05-04 02:05 | 0.29208 | 104.95172 | 30515 ft | 474 kts | 120° |
| 2026-05-04 02:05 | 0.27555 | 104.98031 | 30825 ft | 476 kts | 120° |
| 2026-05-04 02:06 | 0.25893 | 105.00906 | 31123 ft | 478 kts | 120° |
| 2026-05-04 02:06 | 0.24228 | 105.03789 | 31413 ft | 480 kts | 120° |
| 2026-05-04 02:06 | 0.22578 | 105.06649 | 31713 ft | 482 kts | 120° |
| 2026-05-04 02:06 | 0.20898 | 105.09555 | 31987 ft | 484 kts | 120° |
| 2026-05-04 02:07 | 0.19208 | 105.12475 | 32254 ft | 486 kts | 120° |
| 2026-05-04 02:07 | 0.17515 | 105.15398 | 32548 ft | 488 kts | 120° |
| 2026-05-04 02:07 | 0.15815 | 105.18335 | 32806 ft | 489 kts | 120° |
| 2026-05-04 02:07 | 0.14107 | 105.21288 | 33068 ft | 491 kts | 120° |
| 2026-05-04 02:08 | 0.12399 | 105.24241 | 33298 ft | 493 kts | 120° |
| 2026-05-04 02:08 | 0.10680 | 105.27212 | 33566 ft | 493 kts | 120° |
| 2026-05-04 02:08 | 0.08966 | 105.30177 | 33951 ft | 492 kts | 120° |
| 2026-05-04 02:08 | 0.07257 | 105.33132 | 34262 ft | 491 kts | 120° |
| 2026-05-04 02:09 | 0.05551 | 105.36082 | 34517 ft | 491 kts | 120° |
| 2026-05-04 02:09 | 0.03842 | 105.39037 | 34752 ft | 492 kts | 119° |
| 2026-05-04 02:09 | 0.02131 | 105.41996 | 35004 ft | 492 kts | 119° |
| 2026-05-04 02:09 | 0.00421 | 105.44954 | 35255 ft | 492 kts | 119° |
| 2026-05-04 02:10 | -0.01267 | 105.47872 | 35511 ft | 491 kts | 119° |
| 2026-05-04 02:10 | -0.02977 | 105.50829 | 35753 ft | 492 kts | 119° |
| 2026-05-04 02:10 | -0.04689 | 105.53790 | 35985 ft | 492 kts | 119° |
| 2026-05-04 02:10 | -0.06399 | 105.56746 | 36224 ft | 492 kts | 119° |
| 2026-05-04 02:11 | -0.08112 | 105.59709 | 36468 ft | 492 kts | 119° |
| 2026-05-04 02:11 | -0.09822 | 105.62667 | 36685 ft | 493 kts | 119° |
| 2026-05-04 02:11 | -0.11540 | 105.65637 | 36893 ft | 493 kts | 119° |
| 2026-05-04 02:11 | -0.13257 | 105.68607 | 36942 ft | 494 kts | 119° |
| 2026-05-04 02:12 | -0.16687 | 105.74537 | 36946 ft | 493 kts | 119° |
| 2026-05-04 02:12 | -0.20119 | 105.80472 | 36944 ft | 493 kts | 119° |
| 2026-05-04 02:13 | -0.23551 | 105.86407 | 36949 ft | 493 kts | 119° |
| 2026-05-04 02:13 | -0.26954 | 105.92292 | 36946 ft | 492 kts | 119° |
| 2026-05-04 02:14 | -0.30380 | 105.98217 | 36945 ft | 492 kts | 119° |
| 2026-05-04 02:14 | -0.33801 | 106.04134 | 36946 ft | 492 kts | 119° |
| 2026-05-04 02:15 | -0.37220 | 106.10046 | 36946 ft | 492 kts | 119° |
| 2026-05-04 02:15 | -0.40639 | 106.15959 | 36941 ft | 491 kts | 119° |
| 2026-05-04 02:16 | -0.44057 | 106.21870 | 36941 ft | 491 kts | 119° |
| 2026-05-04 02:16 | -0.47469 | 106.27771 | 36943 ft | 491 kts | 119° |
| 2026-05-04 02:17 | -0.50860 | 106.33637 | 36943 ft | 491 kts | 119° |
| 2026-05-04 02:17 | -0.54273 | 106.39540 | 36948 ft | 490 kts | 119° |
| 2026-05-04 02:18 | -0.57683 | 106.45438 | 36945 ft | 490 kts | 119° |
| 2026-05-04 02:18 | -0.61162 | 106.51297 | 36946 ft | 490 kts | 124° |
| 2026-05-04 02:19 | -0.65452 | 106.56586 | 36947 ft | 490 kts | 130° |
| 2026-05-04 02:19 | -0.69966 | 106.61696 | 36949 ft | 490 kts | 131° |
| 2026-05-04 02:20 | -0.74515 | 106.66784 | 36948 ft | 490 kts | 131° |
| 2026-05-04 02:20 | -0.79048 | 106.71872 | 36943 ft | 490 kts | 131° |
| 2026-05-04 02:21 | -0.83535 | 106.76925 | 36947 ft | 490 kts | 131° |
| 2026-05-04 02:21 | -0.88055 | 106.82023 | 36948 ft | 490 kts | 131° |
| 2026-05-04 02:22 | -0.92571 | 106.87115 | 36948 ft | 490 kts | 131° |
| 2026-05-04 02:22 | -0.97090 | 106.92210 | 36945 ft | 489 kts | 131° |
| 2026-05-04 02:23 | -1.01601 | 106.97297 | 36946 ft | 489 kts | 131° |
| 2026-05-04 02:23 | -1.06087 | 107.02354 | 36949 ft | 489 kts | 131° |
| 2026-05-04 02:24 | -1.10594 | 107.07437 | 36949 ft | 489 kts | 131° |
| 2026-05-04 02:24 | -1.15105 | 107.12523 | 36952 ft | 489 kts | 131° |
| 2026-05-04 02:25 | -1.19617 | 107.17612 | 36952 ft | 489 kts | 131° |
| 2026-05-04 02:25 | -1.24128 | 107.22698 | 36947 ft | 489 kts | 131° |
| 2026-05-04 02:26 | -1.28610 | 107.27753 | 36950 ft | 489 kts | 131° |
| 2026-05-04 02:26 | -1.33118 | 107.32837 | 36951 ft | 489 kts | 131° |
| 2026-05-04 02:27 | -1.37625 | 107.37924 | 36954 ft | 489 kts | 130° |
| 2026-05-04 02:27 | -1.42077 | 107.43058 | 36947 ft | 488 kts | 130° |
| 2026-05-04 02:28 | -1.46501 | 107.48213 | 36943 ft | 488 kts | 130° |
| 2026-05-04 02:28 | -1.50897 | 107.53323 | 36947 ft | 488 kts | 130° |
| 2026-05-04 02:29 | -1.55330 | 107.58464 | 36947 ft | 488 kts | 130° |
| 2026-05-04 02:29 | -1.59766 | 107.63603 | 36951 ft | 488 kts | 130° |
| 2026-05-04 02:30 | -1.64193 | 107.68732 | 36949 ft | 488 kts | 130° |
| 2026-05-04 02:30 | -1.68624 | 107.73869 | 36949 ft | 488 kts | 130° |
| 2026-05-04 02:31 | -1.73024 | 107.78969 | 36949 ft | 487 kts | 130° |
| 2026-05-04 02:31 | -1.77448 | 107.84096 | 36948 ft | 487 kts | 130° |
| 2026-05-04 02:32 | -1.81880 | 107.89234 | 36950 ft | 487 kts | 130° |
| 2026-05-04 02:32 | -1.86307 | 107.94366 | 36951 ft | 487 kts | 130° |
| 2026-05-04 02:33 | -1.90730 | 107.99494 | 36947 ft | 487 kts | 130° |
| 2026-05-04 02:33 | -1.95158 | 108.04630 | 36941 ft | 488 kts | 130° |
| 2026-05-04 02:34 | -1.99556 | 108.09730 | 36944 ft | 488 kts | 130° |
| 2026-05-04 02:34 | -2.03985 | 108.14866 | 36946 ft | 488 kts | 130° |
| 2026-05-04 02:35 | -2.08409 | 108.20004 | 36946 ft | 488 kts | 130° |
| 2026-05-04 02:35 | -2.12844 | 108.25142 | 36945 ft | 488 kts | 130° |
| 2026-05-04 02:36 | -2.17272 | 108.30269 | 36945 ft | 488 kts | 130° |
| 2026-05-04 02:36 | -2.21676 | 108.35371 | 36949 ft | 488 kts | 130° |
| 2026-05-04 02:37 | -2.26107 | 108.40508 | 36944 ft | 488 kts | 130° |
| 2026-05-04 02:37 | -2.30531 | 108.45638 | 36944 ft | 488 kts | 130° |
| 2026-05-04 02:38 | -2.34967 | 108.50781 | 36952 ft | 488 kts | 130° |
| 2026-05-04 02:38 | -2.39398 | 108.55921 | 36944 ft | 488 kts | 130° |
| 2026-05-04 02:39 | -2.43806 | 108.61033 | 36961 ft | 489 kts | 130° |
| 2026-05-04 02:39 | -2.48249 | 108.66187 | 36945 ft | 489 kts | 130° |
| 2026-05-04 02:40 | -2.52690 | 108.71337 | 36943 ft | 489 kts | 130° |
| 2026-05-04 02:40 | -2.57146 | 108.76480 | 36941 ft | 489 kts | 130° |
| 2026-05-04 02:41 | -2.61608 | 108.81631 | 36939 ft | 490 kts | 130° |
| 2026-05-04 02:41 | -2.66063 | 108.86779 | 36941 ft | 490 kts | 130° |
| 2026-05-04 02:42 | -2.70519 | 108.91931 | 36937 ft | 490 kts | 130° |
| 2026-05-04 02:42 | -2.74976 | 108.97086 | 36942 ft | 490 kts | 130° |
| 2026-05-04 02:43 | -2.79401 | 109.02204 | 36942 ft | 490 kts | 130° |
| 2026-05-04 02:43 | -2.83855 | 109.07355 | 36953 ft | 490 kts | 130° |
| 2026-05-04 02:44 | -2.88312 | 109.12511 | 36945 ft | 490 kts | 130° |
| 2026-05-04 02:44 | -2.92763 | 109.17677 | 36941 ft | 490 kts | 130° |
| 2026-05-04 02:45 | -2.97210 | 109.22844 | 36939 ft | 490 kts | 130° |
| 2026-05-04 02:45 | -3.01657 | 109.28010 | 36958 ft | 490 kts | 130° |
| 2026-05-04 02:46 | -3.06105 | 109.33177 | 36941 ft | 490 kts | 130° |
| 2026-05-04 02:46 | -3.10549 | 109.38342 | 36938 ft | 490 kts | 130° |
| 2026-05-04 02:47 | -3.14964 | 109.43474 | 36936 ft | 489 kts | 130° |
| 2026-05-04 02:47 | -3.19401 | 109.48631 | 36958 ft | 489 kts | 130° |
| 2026-05-04 02:48 | -3.23835 | 109.53786 | 36954 ft | 488 kts | 130° |
| 2026-05-04 02:48 | -3.28266 | 109.58939 | 36937 ft | 488 kts | 130° |
| 2026-05-04 02:49 | -3.31948 | 109.63222 | 36954 ft | 488 kts | 130° |
| 2026-05-04 02:49 | -3.36379 | 109.68376 | 36953 ft | 489 kts | 130° |
| 2026-05-04 02:50 | -3.41533 | 109.74371 | 36939 ft | 489 kts | 130° |
| 2026-05-04 02:50 | -3.45967 | 109.79530 | 36950 ft | 489 kts | 130° |
| 2026-05-04 02:51 | -3.49653 | 109.83819 | 36933 ft | 489 kts | 130° |
| 2026-05-04 02:51 | -3.54088 | 109.88981 | 36934 ft | 489 kts | 130° |
| 2026-05-04 02:52 | -3.59239 | 109.94977 | 36946 ft | 489 kts | 130° |
| 2026-05-04 02:52 | -3.62951 | 109.99299 | 36953 ft | 489 kts | 130° |
| 2026-05-04 02:53 | -3.67384 | 110.04461 | 36953 ft | 489 kts | 130° |
| 2026-05-04 02:53 | -3.71793 | 110.09596 | 36933 ft | 489 kts | 130° |
| 2026-05-04 02:54 | -3.76228 | 110.14762 | 36937 ft | 490 kts | 130° |
| 2026-05-04 02:54 | -3.80665 | 110.19930 | 36947 ft | 490 kts | 130° |
| 2026-05-04 02:55 | -3.87328 | 110.27695 | 36931 ft | 490 kts | 130° |
| 2026-05-04 02:56 | -3.91768 | 110.32870 | 36949 ft | 490 kts | 130° |
| 2026-05-04 02:56 | -3.96209 | 110.38048 | 36950 ft | 490 kts | 130° |
| 2026-05-04 02:57 | -4.00507 | 110.43337 | 36934 ft | 490 kts | 127° |
| 2026-05-04 02:57 | -4.04588 | 110.48743 | 36948 ft | 490 kts | 126° |
| 2026-05-04 02:58 | -4.08703 | 110.54175 | 36951 ft | 490 kts | 127° |
| 2026-05-04 02:58 | -4.12870 | 110.59603 | 36952 ft | 490 kts | 127° |
| 2026-05-04 02:59 | -4.17044 | 110.65008 | 36950 ft | 491 kts | 127° |
| 2026-05-04 02:59 | -4.21219 | 110.70414 | 36950 ft | 491 kts | 127° |
| 2026-05-04 03:00 | -4.25394 | 110.75824 | 36950 ft | 491 kts | 127° |
| 2026-05-04 03:00 | -4.29566 | 110.81233 | 36948 ft | 491 kts | 127° |
| 2026-05-04 03:01 | -4.33713 | 110.86610 | 36951 ft | 491 kts | 127° |
| 2026-05-04 03:01 | -4.37886 | 110.92023 | 36948 ft | 491 kts | 127° |
| 2026-05-04 03:02 | -4.42059 | 110.97436 | 36948 ft | 491 kts | 127° |
| 2026-05-04 03:02 | -4.46232 | 111.02850 | 36950 ft | 491 kts | 127° |
| 2026-05-04 03:03 | -4.50401 | 111.08261 | 36951 ft | 491 kts | 127° |
| 2026-05-04 03:03 | -4.54571 | 111.13675 | 36953 ft | 491 kts | 127° |
| 2026-05-04 03:04 | -4.58715 | 111.19056 | 36949 ft | 491 kts | 127° |
| 2026-05-04 03:04 | -4.62883 | 111.24471 | 36948 ft | 491 kts | 127° |
| 2026-05-04 03:05 | -4.67064 | 111.29873 | 36937 ft | 490 kts | 127° |
| 2026-05-04 03:05 | -4.71257 | 111.35271 | 36936 ft | 490 kts | 127° |
| 2026-05-04 03:06 | -4.75442 | 111.40666 | 36951 ft | 490 kts | 127° |
| 2026-05-04 03:06 | -4.79597 | 111.46026 | 36951 ft | 490 kts | 127° |
| 2026-05-04 03:07 | -4.83782 | 111.51430 | 36955 ft | 491 kts | 127° |
| 2026-05-04 03:07 | -4.87967 | 111.56836 | 36952 ft | 491 kts | 127° |
| 2026-05-04 03:08 | -4.92160 | 111.62253 | 36936 ft | 492 kts | 127° |
| 2026-05-04 03:08 | -4.96357 | 111.67674 | 36936 ft | 493 kts | 127° |
| 2026-05-04 03:09 | -5.00560 | 111.73109 | 36946 ft | 494 kts | 127° |
| 2026-05-04 03:09 | -5.04774 | 111.78556 | 36942 ft | 494 kts | 127° |
| 2026-05-04 03:10 | -5.08993 | 111.84010 | 36954 ft | 495 kts | 126° |
| 2026-05-04 03:10 | -5.13184 | 111.89430 | 36953 ft | 495 kts | 126° |
| 2026-05-04 03:11 | -5.17412 | 111.94898 | 36955 ft | 496 kts | 127° |
| 2026-05-04 03:11 | -5.21640 | 112.00370 | 36942 ft | 496 kts | 126° |
| 2026-05-04 03:12 | -5.25862 | 112.05835 | 36944 ft | 496 kts | 126° |
| 2026-05-04 03:12 | -5.30088 | 112.11306 | 36943 ft | 496 kts | 126° |
| 2026-05-04 03:13 | -5.34316 | 112.16783 | 36943 ft | 496 kts | 126° |
| 2026-05-04 03:13 | -5.38541 | 112.22253 | 36943 ft | 496 kts | 127° |
| 2026-05-04 03:14 | -5.42737 | 112.27689 | 36939 ft | 496 kts | 126° |
| 2026-05-04 03:14 | -5.46966 | 112.33171 | 36940 ft | 496 kts | 127° |
| 2026-05-04 03:15 | -5.51191 | 112.38648 | 36938 ft | 497 kts | 127° |
| 2026-05-04 03:15 | -5.55423 | 112.44135 | 36939 ft | 497 kts | 127° |
| 2026-05-04 03:16 | -5.59652 | 112.49618 | 36939 ft | 497 kts | 127° |
| 2026-05-04 03:16 | -5.63890 | 112.55113 | 36940 ft | 497 kts | 127° |
| 2026-05-04 03:17 | -5.68122 | 112.60604 | 36942 ft | 497 kts | 127° |
| 2026-05-04 03:17 | -5.72324 | 112.66061 | 36941 ft | 497 kts | 127° |
| 2026-05-04 03:18 | -5.76555 | 112.71555 | 36935 ft | 498 kts | 127° |
| 2026-05-04 03:18 | -5.80792 | 112.77057 | 36940 ft | 498 kts | 127° |
| 2026-05-04 03:19 | -5.85030 | 112.82562 | 36941 ft | 498 kts | 127° |
| 2026-05-04 03:19 | -5.89270 | 112.88072 | 36942 ft | 499 kts | 127° |
| 2026-05-04 03:20 | -5.93512 | 112.93585 | 36939 ft | 499 kts | 127° |
| 2026-05-04 03:20 | -5.97732 | 112.99072 | 36937 ft | 499 kts | 127° |
| 2026-05-04 03:21 | -6.01975 | 113.04589 | 36939 ft | 499 kts | 127° |
| 2026-05-04 03:21 | -6.06215 | 113.10104 | 36930 ft | 499 kts | 127° |
| 2026-05-04 03:22 | -6.10450 | 113.15616 | 36937 ft | 499 kts | 127° |
| 2026-05-04 03:22 | -6.14690 | 113.21134 | 36936 ft | 498 kts | 127° |
| 2026-05-04 03:23 | -6.18896 | 113.26611 | 36933 ft | 498 kts | 127° |
| 2026-05-04 03:23 | -6.23139 | 113.32115 | 36924 ft | 498 kts | 128° |
| 2026-05-04 03:24 | -6.28197 | 113.36868 | 36922 ft | 499 kts | 142° |
| 2026-05-04 03:24 | -6.33781 | 113.41002 | 36925 ft | 499 kts | 144° |
| 2026-05-04 03:25 | -6.39447 | 113.45049 | 36922 ft | 499 kts | 144° |
| 2026-05-04 03:25 | -6.45107 | 113.49099 | 36923 ft | 499 kts | 144° |
| 2026-05-04 03:26 | -6.50712 | 113.53136 | 36921 ft | 499 kts | 144° |
| 2026-05-04 03:26 | -6.56352 | 113.57210 | 36914 ft | 499 kts | 144° |
| 2026-05-04 03:27 | -6.61990 | 113.61286 | 36918 ft | 499 kts | 144° |
| 2026-05-04 03:27 | -6.67630 | 113.65363 | 36922 ft | 499 kts | 144° |
| 2026-05-04 03:28 | -6.73264 | 113.69436 | 36919 ft | 499 kts | 144° |
| 2026-05-04 03:28 | -6.78900 | 113.73512 | 36918 ft | 499 kts | 144° |
| 2026-05-04 03:29 | -6.84536 | 113.77589 | 36917 ft | 499 kts | 144° |
| 2026-05-04 03:29 | -6.90168 | 113.81664 | 36922 ft | 499 kts | 144° |
| 2026-05-04 03:30 | -6.95763 | 113.85713 | 36924 ft | 498 kts | 144° |
| 2026-05-04 03:30 | -7.01388 | 113.89787 | 36919 ft | 498 kts | 144° |
| 2026-05-04 03:31 | -7.07011 | 113.93865 | 36923 ft | 498 kts | 144° |
| 2026-05-04 03:31 | -7.12642 | 113.97947 | 36918 ft | 499 kts | 144° |
| 2026-05-04 03:32 | -7.18269 | 114.02029 | 36919 ft | 499 kts | 144° |
| 2026-05-04 03:32 | -7.23895 | 114.06111 | 36922 ft | 499 kts | 144° |
| 2026-05-04 03:33 | -7.29532 | 114.10203 | 36920 ft | 499 kts | 144° |
| 2026-05-04 03:33 | -7.35128 | 114.14267 | 36922 ft | 500 kts | 144° |
| 2026-05-04 03:34 | -7.40761 | 114.18358 | 36916 ft | 499 kts | 144° |
| 2026-05-04 03:34 | -7.46401 | 114.22456 | 36919 ft | 500 kts | 144° |
| 2026-05-04 03:35 | -7.52043 | 114.26556 | 36923 ft | 500 kts | 144° |
| 2026-05-04 03:35 | -7.57673 | 114.30651 | 36928 ft | 500 kts | 144° |
| 2026-05-04 03:36 | -7.63315 | 114.34754 | 36930 ft | 500 kts | 144° |
| 2026-05-04 03:36 | -7.68956 | 114.38859 | 36931 ft | 500 kts | 144° |
| 2026-05-04 03:37 | -7.74553 | 114.42932 | 36931 ft | 499 kts | 144° |
| 2026-05-04 03:37 | -7.80187 | 114.47033 | 36933 ft | 499 kts | 145° |
| 2026-05-04 03:38 | -7.85812 | 114.51130 | 36936 ft | 498 kts | 145° |
| 2026-05-04 03:38 | -7.91433 | 114.55224 | 36939 ft | 498 kts | 145° |
| 2026-05-04 03:39 | -7.97044 | 114.59315 | 36937 ft | 498 kts | 145° |
| 2026-05-04 03:39 | -8.02655 | 114.63405 | 36937 ft | 497 kts | 145° |
| 2026-05-04 03:40 | -8.08222 | 114.67465 | 36940 ft | 497 kts | 145° |
| 2026-05-04 03:40 | -8.13828 | 114.71555 | 36941 ft | 497 kts | 145° |
| 2026-05-04 03:41 | -8.19429 | 114.75643 | 36943 ft | 497 kts | 145° |
| 2026-05-04 03:41 | -8.25025 | 114.79729 | 36944 ft | 496 kts | 145° |
| 2026-05-04 03:42 | -8.30619 | 114.83814 | 36950 ft | 496 kts | 145° |
| 2026-05-04 03:42 | -8.36209 | 114.87898 | 36950 ft | 496 kts | 145° |
| 2026-05-04 03:43 | -8.41760 | 114.91956 | 36950 ft | 496 kts | 145° |
| 2026-05-04 03:43 | -8.47355 | 114.96046 | 36953 ft | 496 kts | 145° |
| 2026-05-04 03:44 | -8.52940 | 115.00131 | 36949 ft | 496 kts | 145° |
| 2026-05-04 03:44 | -8.58528 | 115.04218 | 36945 ft | 496 kts | 145° |
| 2026-05-04 03:45 | -8.64116 | 115.08308 | 36941 ft | 496 kts | 145° |
| 2026-05-04 03:45 | -8.69668 | 115.12373 | 36942 ft | 496 kts | 145° |
| 2026-05-04 03:46 | -8.75189 | 115.16554 | 36937 ft | 497 kts | 140° |
| 2026-05-04 03:46 | -8.80331 | 115.21234 | 36939 ft | 498 kts | 139° |
| 2026-05-04 03:47 | -8.85402 | 115.25996 | 36939 ft | 498 kts | 138° |
| 2026-05-04 03:47 | -8.90468 | 115.30775 | 36941 ft | 498 kts | 138° |
| 2026-05-04 03:48 | -8.95540 | 115.35550 | 36945 ft | 498 kts | 139° |
| 2026-05-04 03:48 | -9.00583 | 115.40290 | 36943 ft | 498 kts | 139° |
| 2026-05-04 03:49 | -9.05657 | 115.45060 | 36951 ft | 498 kts | 139° |
| 2026-05-04 03:49 | -9.10739 | 115.49839 | 36945 ft | 499 kts | 139° |
| 2026-05-04 03:50 | -9.15818 | 115.54617 | 36941 ft | 499 kts | 139° |
| 2026-05-04 03:50 | -9.20901 | 115.59402 | 36945 ft | 499 kts | 139° |
| 2026-05-04 03:51 | -9.25981 | 115.64186 | 36944 ft | 499 kts | 139° |
| 2026-05-04 03:51 | -9.31064 | 115.68974 | 36941 ft | 499 kts | 139° |
| 2026-05-04 03:52 | -9.36147 | 115.73765 | 36945 ft | 499 kts | 139° |